Ana Sayfa
METAR-TAF:

METAR-TAF

Havaalanları :

Palacios Municipal Airport

Palacios, Teksas, Amerika Birleşik Devletleri

Enlem: 28-43-39N, Boylam: 096-15-03W, yükseklik: 5 m

Güncel hava durumu gözlemi

Rapor saat 11:53 UTC de 57 dakika önce yapıldı.
Rüzgar güneydoğudan 9 kt
Sıcaklık 26°C
Nem 89%
Basınç 1016 hPa
Görüş mesafesi: 14.5 km
6000 ft yükseklikte parçalı bulutlu

METAR: KPSX 251153Z AUTO 13009KT 9SM SCT060 26/24 A3001 RMK AO2 SLP160 T02610239 10267 20261 53014

Saat: 07:50 (12:50 UTC)


TAF: eksik

4.000'den fazla havaalanı için hava durumu gözlemleri ve tahminleri (METAR ve TAF raporları).

Kullanılabilir istasyonlar harita üzerinde sarı ve kırmızı noktalarla gösterilir.

İstasyonun adını görmek için fareyi noktanın üzerinde gezdirin.

Sonrasında hava gözlem ve tahminlerini görmek için tıklayın.

Haritayı değiştirmek için: yaklaştırmak için siyah artı işaretli yeşil düğmeye ve uzaklaştırmak için de eksi işaretli düğmeye hızla tıklayın; bitişik haritalar için yeşil okları kullanın.


METAR-TAF: